sensor_id;sensor_type;location;lat;lon;timestamp;pressure;altitude;pressure_sealevel;temperature;humidity
73422;BME280;61637;47.760;-122.022;2023-04-12T00:00:01;101930.339;;;6.7;unknown
73422;BME280;61637;47.760;-122.022;2023-04-12T00:02:01;101930.339;;;6.6;unknown
73422;BME280;61637;47.760;-122.022;2023-04-12T00:04:01;101930.339;;;6.5;unknown
73422;BME280;61637;47.760;-122.022;2023-04-12T00:06:01;101930.339;;;6.4;unknown
73422;BME280;61637;47.760;-122.022;2023-04-12T00:08:02;101930.339;;;6.3;unknown
73422;BME280;61637;47.760;-122.022;2023-04-12T00:10:01;101930.339;;;6.3;unknown
73422;BME280;61637;47.760;-122.022;2023-04-12T00:12:02;101930.339;;;6.3;unknown
73422;BME280;61637;47.760;-122.022;2023-04-12T00:14:01;101930.339;;;6.3;unknown
73422;BME280;61637;47.760;-122.022;2023-04-12T00:16:01;101930.339;;;6.3;unknown
73422;BME280;61637;47.760;-122.022;2023-04-12T00:18:01;101930.339;;;6.3;unknown
73422;BME280;61637;47.760;-122.022;2023-04-12T00:20:02;101930.339;;;6.3;unknown
73422;BME280;61637;47.760;-122.022;2023-04-12T00:22:01;101930.339;;;6.4;unknown
73422;BME280;61637;47.760;-122.022;2023-04-12T00:24:01;101930.339;;;6.4;unknown
73422;BME280;61637;47.760;-122.022;2023-04-12T00:26:01;101930.339;;;6.5;unknown
73422;BME280;61637;47.760;-122.022;2023-04-12T00:28:01;101930.339;;;6.6;unknown
73422;BME280;61637;47.760;-122.022;2023-04-12T00:30:01;101930.339;;;6.6;unknown
73422;BME280;61637;47.760;-122.022;2023-04-12T00:32:01;101930.339;;;6.7;unknown
73422;BME280;61637;47.760;-122.022;2023-04-12T00:34:01;101930.339;;;6.7;unknown
73422;BME280;61637;47.760;-122.022;2023-04-12T00:36:01;101930.339;;;6.7;unknown
73422;BME280;61637;47.760;-122.022;2023-04-12T00:38:01;101930.339;;;6.8;unknown
73422;BME280;61637;47.760;-122.022;2023-04-12T00:40:01;101930.339;;;6.9;unknown
73422;BME280;61637;47.760;-122.022;2023-04-12T00:42:02;101930.339;;;6.9;unknown
73422;BME280;61637;47.760;-122.022;2023-04-12T00:44:01;101930.339;;;7.0;unknown
73422;BME280;61637;47.760;-122.022;2023-04-12T00:46:01;101930.339;;;7.0;unknown
73422;BME280;61637;47.760;-122.022;2023-04-12T00:48:01;101930.339;;;7.0;unknown
73422;BME280;61637;47.760;-122.022;2023-04-12T00:50:01;101930.339;;;7.0;unknown
73422;BME280;61637;47.760;-122.022;2023-04-12T00:52:03;101930.339;;;7.0;unknown
73422;BME280;61637;47.760;-122.022;2023-04-12T00:54:01;101930.339;;;7.0;unknown
73422;BME280;61637;47.760;-122.022;2023-04-12T00:56:01;101930.339;;;7.0;unknown
73422;BME280;61637;47.760;-122.022;2023-04-12T00:58:01;101930.339;;;7.0;unknown
73422;BME280;61637;47.760;-122.022;2023-04-12T01:00:01;101930.339;;;7.1;unknown
73422;BME280;61637;47.760;-122.022;2023-04-12T01:02:01;101930.339;;;7.1;unknown
73422;BME280;61637;47.760;-122.022;2023-04-12T01:04:01;101930.339;;;7.2;unknown
73422;BME280;61637;47.760;-122.022;2023-04-12T01:06:06;101930.339;;;7.2;unknown
73422;BME280;61637;47.760;-122.022;2023-04-12T01:08:03;101930.339;;;7.2;unknown
73422;BME280;61637;47.760;-122.022;2023-04-12T01:10:03;101930.339;;;7.2;unknown
73422;BME280;61637;47.760;-122.022;2023-04-12T01:12:03;101930.339;;;7.2;unknown
73422;BME280;61637;47.760;-122.022;2023-04-12T01:14:02;101930.339;;;7.2;unknown
73422;BME280;61637;47.760;-122.022;2023-04-12T01:16:03;101930.339;;;7.2;unknown
73422;BME280;61637;47.760;-122.022;2023-04-12T01:18:02;101930.339;;;7.2;unknown
73422;BME280;61637;47.760;-122.022;2023-04-12T01:20:01;101930.339;;;7.2;unknown
73422;BME280;61637;47.760;-122.022;2023-04-12T01:22:04;101930.339;;;7.2;unknown
73422;BME280;61637;47.760;-122.022;2023-04-12T01:24:02;101930.339;;;7.2;unknown
73422;BME280;61637;47.760;-122.022;2023-04-12T01:26:07;101930.339;;;7.2;unknown
73422;BME280;61637;47.760;-122.022;2023-04-12T01:28:02;101930.339;;;7.2;unknown
73422;BME280;61637;47.760;-122.022;2023-04-12T01:30:01;101930.339;;;7.1;unknown
73422;BME280;61637;47.760;-122.022;2023-04-12T01:32:01;101930.339;;;7.1;unknown
73422;BME280;61637;47.760;-122.022;2023-04-12T01:34:01;101930.339;;;7.0;unknown
73422;BME280;61637;47.760;-122.022;2023-04-12T01:36:02;101930.339;;;7.0;unknown
73422;BME280;61637;47.760;-122.022;2023-04-12T01:38:01;101930.339;;;6.9;unknown
73422;BME280;61637;47.760;-122.022;2023-04-12T01:40:01;101930.339;;;6.8;unknown
73422;BME280;61637;47.760;-122.022;2023-04-12T01:42:01;101930.339;;;6.8;unknown
73422;BME280;61637;47.760;-122.022;2023-04-12T01:44:01;101930.339;;;6.7;unknown
73422;BME280;61637;47.760;-122.022;2023-04-12T01:46:01;101930.339;;;6.7;unknown
73422;BME280;61637;47.760;-122.022;2023-04-12T01:48:01;101930.339;;;6.6;unknown
73422;BME280;61637;47.760;-122.022;2023-04-12T01:50:09;101930.339;;;6.6;unknown
73422;BME280;61637;47.760;-122.022;2023-04-12T01:52:02;101930.339;;;6.5;unknown
73422;BME280;61637;47.760;-122.022;2023-04-12T01:54:03;101930.339;;;6.4;unknown
73422;BME280;61637;47.760;-122.022;2023-04-12T01:56:03;101930.339;;;6.4;unknown
73422;BME280;61637;47.760;-122.022;2023-04-12T01:58:01;101930.339;;;6.4;unknown
73422;BME280;61637;47.760;-122.022;2023-04-12T02:00:01;101930.339;;;6.3;unknown
73422;BME280;61637;47.760;-122.022;2023-04-12T02:02:01;101930.339;;;6.3;unknown
73422;BME280;61637;47.760;-122.022;2023-04-12T02:04:01;101930.339;;;6.2;unknown
73422;BME280;61637;47.760;-122.022;2023-04-12T02:06:01;101930.339;;;6.2;unknown
73422;BME280;61637;47.760;-122.022;2023-04-12T02:08:01;101930.339;;;6.1;unknown
73422;BME280;61637;47.760;-122.022;2023-04-12T02:10:01;101930.339;;;6.1;unknown
73422;BME280;61637;47.760;-122.022;2023-04-12T02:12:01;101930.339;;;6.1;unknown
73422;BME280;61637;47.760;-122.022;2023-04-12T02:14:01;101930.339;;;6.0;unknown
73422;BME280;61637;47.760;-122.022;2023-04-12T02:16:01;101930.339;;;6.0;unknown
73422;BME280;61637;47.760;-122.022;2023-04-12T02:18:01;101930.339;;;5.9;unknown
73422;BME280;61637;47.760;-122.022;2023-04-12T02:20:01;101930.339;;;5.9;unknown
73422;BME280;61637;47.760;-122.022;2023-04-12T02:22:01;101930.339;;;5.8;unknown
73422;BME280;61637;47.760;-122.022;2023-04-12T02:24:01;101930.339;;;5.8;unknown
73422;BME280;61637;47.760;-122.022;2023-04-12T02:26:01;101930.339;;;5.8;unknown
73422;BME280;61637;47.760;-122.022;2023-04-12T02:28:01;101930.339;;;5.7;unknown
73422;BME280;61637;47.760;-122.022;2023-04-12T02:30:01;101930.339;;;5.7;unknown
73422;BME280;61637;47.760;-122.022;2023-04-12T02:32:01;101930.339;;;5.6;unknown
73422;BME280;61637;47.760;-122.022;2023-04-12T02:34:01;101930.339;;;5.6;unknown
73422;BME280;61637;47.760;-122.022;2023-04-12T02:36:01;101930.339;;;5.6;unknown
73422;BME280;61637;47.760;-122.022;2023-04-12T02:38:01;101930.339;;;5.4;unknown
73422;BME280;61637;47.760;-122.022;2023-04-12T02:40:01;101930.339;;;5.4;unknown
73422;BME280;61637;47.760;-122.022;2023-04-12T02:42:01;101930.339;;;5.4;unknown
73422;BME280;61637;47.760;-122.022;2023-04-12T02:44:01;101930.339;;;5.3;unknown
73422;BME280;61637;47.760;-122.022;2023-04-12T02:46:01;101930.339;;;5.3;unknown
73422;BME280;61637;47.760;-122.022;2023-04-12T02:48:01;101930.339;;;5.3;unknown
73422;BME280;61637;47.760;-122.022;2023-04-12T02:50:01;101930.339;;;5.2;unknown
73422;BME280;61637;47.760;-122.022;2023-04-12T02:52:01;101930.339;;;5.2;unknown
73422;BME280;61637;47.760;-122.022;2023-04-12T02:54:01;101930.339;;;5.2;unknown
73422;BME280;61637;47.760;-122.022;2023-04-12T02:56:02;101930.339;;;5.1;unknown
73422;BME280;61637;47.760;-122.022;2023-04-12T02:58:01;101930.339;;;5.1;unknown
73422;BME280;61637;47.760;-122.022;2023-04-12T03:00:01;101930.339;;;5.0;unknown
73422;BME280;61637;47.760;-122.022;2023-04-12T03:02:01;101930.339;;;5.0;unknown
73422;BME280;61637;47.760;-122.022;2023-04-12T03:04:01;101930.339;;;4.9;unknown
73422;BME280;61637;47.760;-122.022;2023-04-12T03:06:01;101930.339;;;4.9;unknown
73422;BME280;61637;47.760;-122.022;2023-04-12T03:08:01;101930.339;;;4.8;unknown
73422;BME280;61637;47.760;-122.022;2023-04-12T03:10:01;101930.339;;;4.8;unknown
73422;BME280;61637;47.760;-122.022;2023-04-12T03:12:01;101930.339;;;4.8;unknown
73422;BME280;61637;47.760;-122.022;2023-04-12T03:14:01;101930.339;;;4.7;unknown
73422;BME280;61637;47.760;-122.022;2023-04-12T03:16:04;101930.339;;;4.7;unknown
73422;BME280;61637;47.760;-122.022;2023-04-12T03:18:01;101930.339;;;4.7;unknown
73422;BME280;61637;47.760;-122.022;2023-04-12T03:20:02;101930.339;;;4.6;unknown
73422;BME280;61637;47.760;-122.022;2023-04-12T03:22:01;101930.339;;;4.6;unknown
73422;BME280;61637;47.760;-122.022;2023-04-12T03:24:01;101930.339;;;4.6;unknown
73422;BME280;61637;47.760;-122.022;2023-04-12T03:26:01;101930.339;;;4.5;unknown
73422;BME280;61637;47.760;-122.022;2023-04-12T03:28:01;101930.339;;;4.4;unknown
73422;BME280;61637;47.760;-122.022;2023-04-12T03:30:01;101930.339;;;4.4;unknown
73422;BME280;61637;47.760;-122.022;2023-04-12T03:32:01;101930.339;;;4.4;unknown
73422;BME280;61637;47.760;-122.022;2023-04-12T03:34:01;101930.339;;;4.3;unknown
73422;BME280;61637;47.760;-122.022;2023-04-12T03:36:01;101930.339;;;4.3;unknown
73422;BME280;61637;47.760;-122.022;2023-04-12T03:38:01;101930.339;;;4.2;unknown
73422;BME280;61637;47.760;-122.022;2023-04-12T03:40:01;101930.339;;;4.2;unknown
73422;BME280;61637;47.760;-122.022;2023-04-12T03:42:01;101930.339;;;4.2;unknown
73422;BME280;61637;47.760;-122.022;2023-04-12T03:44:01;101930.339;;;4.1;unknown
73422;BME280;61637;47.760;-122.022;2023-04-12T03:46:01;101930.339;;;4.1;unknown
73422;BME280;61637;47.760;-122.022;2023-04-12T03:48:01;101930.339;;;4.1;unknown
73422;BME280;61637;47.760;-122.022;2023-04-12T03:50:01;101930.339;;;4.1;unknown
73422;BME280;61637;47.760;-122.022;2023-04-12T03:52:01;101930.339;;;4.0;unknown
73422;BME280;61637;47.760;-122.022;2023-04-12T03:54:01;101930.339;;;4.0;unknown
73422;BME280;61637;47.760;-122.022;2023-04-12T03:56:01;101930.339;;;3.9;unknown
73422;BME280;61637;47.760;-122.022;2023-04-12T03:58:01;101930.339;;;3.9;unknown
73422;BME280;61637;47.760;-122.022;2023-04-12T04:00:01;101930.339;;;3.9;unknown
73422;BME280;61637;47.760;-122.022;2023-04-12T04:02:01;101930.339;;;3.9;unknown
73422;BME280;61637;47.760;-122.022;2023-04-12T04:04:01;101930.339;;;3.8;unknown
73422;BME280;61637;47.760;-122.022;2023-04-12T04:06:01;101930.339;;;3.8;unknown
73422;BME280;61637;47.760;-122.022;2023-04-12T04:08:01;101930.339;;;3.8;unknown
73422;BME280;61637;47.760;-122.022;2023-04-12T04:10:01;101930.339;;;3.8;unknown
73422;BME280;61637;47.760;-122.022;2023-04-12T04:12:01;101930.339;;;3.7;unknown
73422;BME280;61637;47.760;-122.022;2023-04-12T04:14:01;101930.339;;;3.7;unknown
73422;BME280;61637;47.760;-122.022;2023-04-12T04:16:02;101930.339;;;3.7;unknown
73422;BME280;61637;47.760;-122.022;2023-04-12T04:18:01;101930.339;;;3.7;unknown
73422;BME280;61637;47.760;-122.022;2023-04-12T04:20:01;101930.339;;;3.7;unknown
73422;BME280;61637;47.760;-122.022;2023-04-12T04:22:01;101930.339;;;3.7;unknown
73422;BME280;61637;47.760;-122.022;2023-04-12T04:24:01;101930.339;;;3.6;unknown
73422;BME280;61637;47.760;-122.022;2023-04-12T04:26:01;101930.339;;;3.6;unknown
73422;BME280;61637;47.760;-122.022;2023-04-12T04:28:01;101930.339;;;3.6;unknown
73422;BME280;61637;47.760;-122.022;2023-04-12T04:30:01;101930.339;;;3.6;unknown
73422;BME280;61637;47.760;-122.022;2023-04-12T04:32:01;101930.339;;;3.7;unknown
73422;BME280;61637;47.760;-122.022;2023-04-12T04:34:01;101930.339;;;3.6;unknown
73422;BME280;61637;47.760;-122.022;2023-04-12T04:36:01;101930.339;;;3.6;unknown
73422;BME280;61637;47.760;-122.022;2023-04-12T04:38:01;101930.339;;;3.6;unknown
73422;BME280;61637;47.760;-122.022;2023-04-12T04:40:01;101930.339;;;3.6;unknown
73422;BME280;61637;47.760;-122.022;2023-04-12T04:42:01;101930.339;;;3.6;unknown
73422;BME280;61637;47.760;-122.022;2023-04-12T04:44:01;101930.339;;;3.6;unknown
73422;BME280;61637;47.760;-122.022;2023-04-12T04:46:01;101930.339;;;3.6;unknown
73422;BME280;61637;47.760;-122.022;2023-04-12T04:48:01;101930.339;;;3.6;unknown
73422;BME280;61637;47.760;-122.022;2023-04-12T04:50:01;101930.339;;;3.6;unknown
73422;BME280;61637;47.760;-122.022;2023-04-12T04:52:01;101930.339;;;3.6;unknown
73422;BME280;61637;47.760;-122.022;2023-04-12T04:54:01;101930.339;;;3.5;unknown
73422;BME280;61637;47.760;-122.022;2023-04-12T04:56:01;101930.339;;;3.5;unknown
73422;BME280;61637;47.760;-122.022;2023-04-12T04:58:01;101930.339;;;3.5;unknown
73422;BME280;61637;47.760;-122.022;2023-04-12T05:00:01;101930.339;;;3.5;unknown
73422;BME280;61637;47.760;-122.022;2023-04-12T05:02:01;101930.339;;;3.4;unknown
73422;BME280;61637;47.760;-122.022;2023-04-12T05:04:01;101930.339;;;3.4;unknown
73422;BME280;61637;47.760;-122.022;2023-04-12T05:06:01;101930.339;;;3.4;unknown
73422;BME280;61637;47.760;-122.022;2023-04-12T05:08:01;101930.339;;;3.4;unknown
73422;BME280;61637;47.760;-122.022;2023-04-12T05:10:01;101930.339;;;3.4;unknown
73422;BME280;61637;47.760;-122.022;2023-04-12T05:12:01;101930.339;;;3.4;unknown
73422;BME280;61637;47.760;-122.022;2023-04-12T05:14:01;101930.339;;;3.4;unknown
73422;BME280;61637;47.760;-122.022;2023-04-12T05:16:04;101930.339;;;3.4;unknown
73422;BME280;61637;47.760;-122.022;2023-04-12T05:18:01;101930.339;;;3.4;unknown
73422;BME280;61637;47.760;-122.022;2023-04-12T05:20:01;101930.339;;;3.4;unknown
73422;BME280;61637;47.760;-122.022;2023-04-12T05:22:01;101930.339;;;3.4;unknown
73422;BME280;61637;47.760;-122.022;2023-04-12T05:24:01;101930.339;;;3.4;unknown
73422;BME280;61637;47.760;-122.022;2023-04-12T05:26:01;101930.339;;;3.4;unknown
73422;BME280;61637;47.760;-122.022;2023-04-12T05:28:01;101930.339;;;3.3;unknown
73422;BME280;61637;47.760;-122.022;2023-04-12T05:30:01;101930.339;;;3.3;unknown
73422;BME280;61637;47.760;-122.022;2023-04-12T05:32:01;101930.339;;;3.3;unknown
73422;BME280;61637;47.760;-122.022;2023-04-12T05:34:01;101930.339;;;3.3;unknown
73422;BME280;61637;47.760;-122.022;2023-04-12T05:36:01;101930.339;;;3.3;unknown
73422;BME280;61637;47.760;-122.022;2023-04-12T05:38:01;101930.339;;;3.3;unknown
73422;BME280;61637;47.760;-122.022;2023-04-12T05:40:01;101930.339;;;3.3;unknown
73422;BME280;61637;47.760;-122.022;2023-04-12T05:42:01;101930.339;;;3.2;unknown
73422;BME280;61637;47.760;-122.022;2023-04-12T05:44:01;101930.339;;;3.2;unknown
73422;BME280;61637;47.760;-122.022;2023-04-12T05:46:01;101930.339;;;3.2;unknown
73422;BME280;61637;47.760;-122.022;2023-04-12T05:48:01;101930.339;;;3.2;unknown
73422;BME280;61637;47.760;-122.022;2023-04-12T05:50:01;101930.339;;;3.2;unknown
73422;BME280;61637;47.760;-122.022;2023-04-12T05:52:02;101930.339;;;3.2;unknown
73422;BME280;61637;47.760;-122.022;2023-04-12T05:54:01;101930.339;;;3.1;unknown
73422;BME280;61637;47.760;-122.022;2023-04-12T05:56:01;101930.339;;;3.2;unknown
73422;BME280;61637;47.760;-122.022;2023-04-12T05:58:01;101930.339;;;3.1;unknown
73422;BME280;61637;47.760;-122.022;2023-04-12T06:00:01;101930.339;;;3.1;unknown
73422;BME280;61637;47.760;-122.022;2023-04-12T06:02:01;101930.339;;;3.1;unknown
73422;BME280;61637;47.760;-122.022;2023-04-12T06:04:01;101930.339;;;3.0;unknown
73422;BME280;61637;47.760;-122.022;2023-04-12T06:06:01;101930.339;;;3.0;unknown
73422;BME280;61637;47.760;-122.022;2023-04-12T06:08:01;101930.339;;;2.9;unknown
73422;BME280;61637;47.760;-122.022;2023-04-12T06:10:01;101930.339;;;2.9;unknown
73422;BME280;61637;47.760;-122.022;2023-04-12T06:12:01;101930.339;;;2.9;unknown
73422;BME280;61637;47.760;-122.022;2023-04-12T06:14:01;101930.339;;;2.9;unknown
73422;BME280;61637;47.760;-122.022;2023-04-12T06:16:01;101930.339;;;2.8;unknown
73422;BME280;61637;47.760;-122.022;2023-04-12T06:18:01;101930.339;;;2.8;unknown
73422;BME280;61637;47.760;-122.022;2023-04-12T06:20:01;101930.339;;;2.8;unknown
73422;BME280;61637;47.760;-122.022;2023-04-12T06:22:01;101930.339;;;2.8;unknown
73422;BME280;61637;47.760;-122.022;2023-04-12T06:24:01;101930.339;;;2.8;unknown
73422;BME280;61637;47.760;-122.022;2023-04-12T06:26:01;101930.339;;;2.7;unknown
73422;BME280;61637;47.760;-122.022;2023-04-12T06:28:01;101930.339;;;2.7;unknown
73422;BME280;61637;47.760;-122.022;2023-04-12T06:30:01;101930.339;;;2.7;unknown
73422;BME280;61637;47.760;-122.022;2023-04-12T06:32:01;101930.339;;;2.7;unknown
73422;BME280;61637;47.760;-122.022;2023-04-12T06:34:01;101930.339;;;2.7;unknown
73422;BME280;61637;47.760;-122.022;2023-04-12T06:36:01;101930.339;;;2.7;unknown
73422;BME280;61637;47.760;-122.022;2023-04-12T06:38:01;101930.339;;;2.7;unknown
73422;BME280;61637;47.760;-122.022;2023-04-12T06:40:01;101930.339;;;2.7;unknown
73422;BME280;61637;47.760;-122.022;2023-04-12T06:42:01;101930.339;;;2.7;unknown
73422;BME280;61637;47.760;-122.022;2023-04-12T06:44:01;101930.339;;;2.7;unknown
73422;BME280;61637;47.760;-122.022;2023-04-12T06:46:01;101930.339;;;2.7;unknown
73422;BME280;61637;47.760;-122.022;2023-04-12T06:48:01;101930.339;;;2.7;unknown
73422;BME280;61637;47.760;-122.022;2023-04-12T06:50:01;101930.339;;;2.6;unknown
73422;BME280;61637;47.760;-122.022;2023-04-12T06:52:01;101930.339;;;2.6;unknown
73422;BME280;61637;47.760;-122.022;2023-04-12T06:54:01;101930.339;;;2.6;unknown
73422;BME280;61637;47.760;-122.022;2023-04-12T06:56:02;101930.339;;;2.6;unknown
73422;BME280;61637;47.760;-122.022;2023-04-12T06:58:01;101930.339;;;2.5;unknown
73422;BME280;61637;47.760;-122.022;2023-04-12T07:00:01;101930.339;;;2.4;unknown
73422;BME280;61637;47.760;-122.022;2023-04-12T07:02:01;101930.339;;;2.4;unknown
73422;BME280;61637;47.760;-122.022;2023-04-12T07:04:01;101930.339;;;2.3;unknown
73422;BME280;61637;47.760;-122.022;2023-04-12T07:06:01;101930.339;;;2.3;unknown
73422;BME280;61637;47.760;-122.022;2023-04-12T07:08:01;101930.339;;;2.3;unknown
73422;BME280;61637;47.760;-122.022;2023-04-12T07:10:01;101930.339;;;2.2;unknown
73422;BME280;61637;47.760;-122.022;2023-04-12T07:12:01;101930.339;;;2.2;unknown
73422;BME280;61637;47.760;-122.022;2023-04-12T07:14:01;101930.339;;;2.2;unknown
73422;BME280;61637;47.760;-122.022;2023-04-12T07:16:01;101930.339;;;2.2;unknown
73422;BME280;61637;47.760;-122.022;2023-04-12T07:18:01;101930.339;;;2.2;unknown
73422;BME280;61637;47.760;-122.022;2023-04-12T07:20:01;101930.339;;;2.2;unknown
73422;BME280;61637;47.760;-122.022;2023-04-12T07:22:01;101930.339;;;2.2;unknown
73422;BME280;61637;47.760;-122.022;2023-04-12T07:24:01;101930.339;;;2.2;unknown
73422;BME280;61637;47.760;-122.022;2023-04-12T07:26:01;101930.339;;;2.2;unknown
73422;BME280;61637;47.760;-122.022;2023-04-12T07:28:01;101930.339;;;2.2;unknown
73422;BME280;61637;47.760;-122.022;2023-04-12T07:30:01;101930.339;;;2.2;unknown
73422;BME280;61637;47.760;-122.022;2023-04-12T07:32:01;101591.7;;;2.2;unknown
73422;BME280;61637;47.760;-122.022;2023-04-12T07:34:01;101930.339;;;2.2;unknown
73422;BME280;61637;47.760;-122.022;2023-04-12T07:36:01;101930.339;;;2.2;unknown
73422;BME280;61637;47.760;-122.022;2023-04-12T07:38:01;101930.339;;;2.2;unknown
73422;BME280;61637;47.760;-122.022;2023-04-12T07:40:01;101930.339;;;2.1;unknown
73422;BME280;61637;47.760;-122.022;2023-04-12T07:42:01;101591.7;;;2.1;unknown
73422;BME280;61637;47.760;-122.022;2023-04-12T07:44:01;101930.339;;;2.1;unknown
73422;BME280;61637;47.760;-122.022;2023-04-12T07:46:01;101930.339;;;2.1;unknown
73422;BME280;61637;47.760;-122.022;2023-04-12T07:48:01;101591.7;;;2.1;unknown
73422;BME280;61637;47.760;-122.022;2023-04-12T07:50:01;101930.339;;;2.0;unknown
73422;BME280;61637;47.760;-122.022;2023-04-12T07:52:01;101591.7;;;2.0;unknown
73422;BME280;61637;47.760;-122.022;2023-04-12T07:54:01;101591.7;;;1.9;unknown
73422;BME280;61637;47.760;-122.022;2023-04-12T07:56:01;101591.7;;;1.9;unknown
73422;BME280;61637;47.760;-122.022;2023-04-12T07:58:01;101591.7;;;1.9;unknown
73422;BME280;61637;47.760;-122.022;2023-04-12T08:00:01;101930.339;;;1.8;unknown
73422;BME280;61637;47.760;-122.022;2023-04-12T08:02:01;101591.7;;;1.8;unknown
73422;BME280;61637;47.760;-122.022;2023-04-12T08:04:01;101591.7;;;1.8;unknown
73422;BME280;61637;47.760;-122.022;2023-04-12T08:06:01;101591.7;;;1.8;unknown
73422;BME280;61637;47.760;-122.022;2023-04-12T08:08:01;101591.7;;;1.7;unknown
73422;BME280;61637;47.760;-122.022;2023-04-12T08:10:01;101591.7;;;1.8;unknown
73422;BME280;61637;47.760;-122.022;2023-04-12T08:12:01;101591.7;;;1.7;unknown
73422;BME280;61637;47.760;-122.022;2023-04-12T08:14:01;101591.7;;;1.7;unknown
73422;BME280;61637;47.760;-122.022;2023-04-12T08:16:01;101591.7;;;1.7;unknown
73422;BME280;61637;47.760;-122.022;2023-04-12T08:18:01;101591.7;;;1.7;unknown
73422;BME280;61637;47.760;-122.022;2023-04-12T08:20:01;101591.7;;;1.7;unknown
73422;BME280;61637;47.760;-122.022;2023-04-12T08:22:01;101591.7;;;1.6;unknown
73422;BME280;61637;47.760;-122.022;2023-04-12T08:24:01;101591.7;;;1.6;unknown
73422;BME280;61637;47.760;-122.022;2023-04-12T08:26:01;101591.7;;;1.6;unknown
73422;BME280;61637;47.760;-122.022;2023-04-12T08:28:01;101591.7;;;1.6;unknown
73422;BME280;61637;47.760;-122.022;2023-04-12T08:30:01;101591.7;;;1.6;unknown
73422;BME280;61637;47.760;-122.022;2023-04-12T08:32:01;101591.7;;;1.5;unknown
73422;BME280;61637;47.760;-122.022;2023-04-12T08:34:01;101591.7;;;1.5;unknown
73422;BME280;61637;47.760;-122.022;2023-04-12T08:36:01;101591.7;;;1.5;unknown
73422;BME280;61637;47.760;-122.022;2023-04-12T08:38:01;101591.7;;;1.4;unknown
73422;BME280;61637;47.760;-122.022;2023-04-12T08:40:02;101591.7;;;1.4;unknown
73422;BME280;61637;47.760;-122.022;2023-04-12T08:42:01;101591.7;;;1.4;unknown
73422;BME280;61637;47.760;-122.022;2023-04-12T08:44:01;101591.7;;;1.4;unknown
73422;BME280;61637;47.760;-122.022;2023-04-12T08:46:01;101591.7;;;1.3;unknown
73422;BME280;61637;47.760;-122.022;2023-04-12T08:48:01;101591.7;;;1.3;unknown
73422;BME280;61637;47.760;-122.022;2023-04-12T08:50:01;101591.7;;;1.3;unknown
73422;BME280;61637;47.760;-122.022;2023-04-12T08:52:02;101591.7;;;1.3;unknown
73422;BME280;61637;47.760;-122.022;2023-04-12T08:54:01;101591.7;;;1.3;unknown
73422;BME280;61637;47.760;-122.022;2023-04-12T08:56:01;101591.7;;;1.3;unknown
73422;BME280;61637;47.760;-122.022;2023-04-12T08:58:01;101591.7;;;1.2;unknown
73422;BME280;61637;47.760;-122.022;2023-04-12T09:00:01;101591.7;;;1.2;unknown
73422;BME280;61637;47.760;-122.022;2023-04-12T09:02:01;101591.7;;;1.2;unknown
73422;BME280;61637;47.760;-122.022;2023-04-12T09:04:05;101591.7;;;1.2;unknown
73422;BME280;61637;47.760;-122.022;2023-04-12T09:06:02;101591.7;;;1.2;unknown
73422;BME280;61637;47.760;-122.022;2023-04-12T09:08:01;101591.7;;;1.3;unknown
73422;BME280;61637;47.760;-122.022;2023-04-12T09:10:01;101591.7;;;1.3;unknown
73422;BME280;61637;47.760;-122.022;2023-04-12T09:12:05;101591.7;;;1.3;unknown
73422;BME280;61637;47.760;-122.022;2023-04-12T09:14:01;101591.7;;;1.3;unknown
73422;BME280;61637;47.760;-122.022;2023-04-12T09:16:01;101591.7;;;1.3;unknown
73422;BME280;61637;47.760;-122.022;2023-04-12T09:18:02;101591.7;;;1.3;unknown
73422;BME280;61637;47.760;-122.022;2023-04-12T09:20:01;101591.7;;;1.3;unknown
73422;BME280;61637;47.760;-122.022;2023-04-12T09:22:01;101591.7;;;1.3;unknown
73422;BME280;61637;47.760;-122.022;2023-04-12T09:24:01;101591.7;;;1.3;unknown
73422;BME280;61637;47.760;-122.022;2023-04-12T09:26:01;101591.7;;;1.3;unknown
73422;BME280;61637;47.760;-122.022;2023-04-12T09:28:01;101591.7;;;1.3;unknown
73422;BME280;61637;47.760;-122.022;2023-04-12T09:30:08;101591.7;;;1.3;unknown
73422;BME280;61637;47.760;-122.022;2023-04-12T09:32:01;101591.7;;;1.4;unknown
73422;BME280;61637;47.760;-122.022;2023-04-12T09:34:05;101591.7;;;1.4;unknown
73422;BME280;61637;47.760;-122.022;2023-04-12T09:36:01;101591.7;;;1.3;unknown
73422;BME280;61637;47.760;-122.022;2023-04-12T09:38:06;101591.7;;;1.4;unknown
73422;BME280;61637;47.760;-122.022;2023-04-12T09:40:01;101591.7;;;1.4;unknown
73422;BME280;61637;47.760;-122.022;2023-04-12T09:42:04;101591.7;;;1.4;unknown
73422;BME280;61637;47.760;-122.022;2023-04-12T09:44:01;101591.7;;;1.4;unknown
73422;BME280;61637;47.760;-122.022;2023-04-12T09:46:06;101591.7;;;1.4;unknown
73422;BME280;61637;47.760;-122.022;2023-04-12T09:48:01;101591.7;;;1.4;unknown
73422;BME280;61637;47.760;-122.022;2023-04-12T09:50:01;101591.7;;;1.4;unknown
73422;BME280;61637;47.760;-122.022;2023-04-12T09:52:01;101591.7;;;1.4;unknown
73422;BME280;61637;47.760;-122.022;2023-04-12T09:54:02;101591.7;;;1.4;unknown
73422;BME280;61637;47.760;-122.022;2023-04-12T09:56:02;101591.7;;;1.4;unknown
73422;BME280;61637;47.760;-122.022;2023-04-12T09:58:01;101591.7;;;1.4;unknown